sensor_id;sensor_type;location;lat;lon;timestamp;pressure;altitude;pressure_sealevel;temperature;humidity
27984;BME280;15317;50.360;8.726;2023-02-14T00:02:51;101433.16;;;1.23;100.00
27984;BME280;15317;50.360;8.726;2023-02-14T00:06:52;101432.34;;;1.21;100.00
27984;BME280;15317;50.360;8.726;2023-02-14T00:10:56;101437.72;;;1.19;100.00
27984;BME280;15317;50.360;8.726;2023-02-14T00:14:58;101433.34;;;1.16;100.00
27984;BME280;15317;50.360;8.726;2023-02-14T00:19:18;101424.63;;;1.11;100.00
27984;BME280;15317;50.360;8.726;2023-02-14T00:23:21;101433.56;;;1.10;100.00
27984;BME280;15317;50.360;8.726;2023-02-14T00:27:24;101439.91;;;1.08;100.00
27984;BME280;15317;50.360;8.726;2023-02-14T00:31:26;101435.53;;;1.05;100.00
27984;BME280;15317;50.360;8.726;2023-02-14T00:35:28;101433.78;;;1.04;100.00
27984;BME280;15317;50.360;8.726;2023-02-14T00:39:30;101433.91;;;1.01;100.00
27984;BME280;15317;50.360;8.726;2023-02-14T00:43:33;101424.13;;;1.00;100.00
27984;BME280;15317;50.360;8.726;2023-02-14T00:47:35;101430.38;;;0.99;100.00
27984;BME280;15317;50.360;8.726;2023-02-14T00:51:37;101434.03;;;0.97;100.00
27984;BME280;15317;50.360;8.726;2023-02-14T00:55:39;101425.25;;;0.93;100.00
27984;BME280;15317;50.360;8.726;2023-02-14T00:59:43;101420.00;;;0.90;100.00
27984;BME280;15317;50.360;8.726;2023-02-14T01:03:45;101420.13;;;0.87;100.00
27984;BME280;15317;50.360;8.726;2023-02-14T01:07:47;101426.56;;;0.82;100.00
27984;BME280;15317;50.360;8.726;2023-02-14T01:11:49;101430.19;;;0.79;100.00
27984;BME280;15317;50.360;8.726;2023-02-14T01:15:53;101431.22;;;0.75;100.00
27984;BME280;15317;50.360;8.726;2023-02-14T01:19:55;101425.09;;;0.71;100.00
27984;BME280;15317;50.360;8.726;2023-02-14T01:23:59;101423.38;;;0.69;100.00
27984;BME280;15317;50.360;8.726;2023-02-14T01:28:01;101422.56;;;0.67;100.00
27984;BME280;15317;50.360;8.726;2023-02-14T01:32:04;101423.66;;;0.61;100.00
27984;BME280;15317;50.360;8.726;2023-02-14T01:36:14;101433.47;;;0.61;100.00
27984;BME280;15317;50.360;8.726;2023-02-14T01:40:16;101421.03;;;0.60;100.00
27984;BME280;15317;50.360;8.726;2023-02-14T01:44:54;101431.94;;;0.54;100.00
27984;BME280;15317;50.360;8.726;2023-02-14T01:49:02;101421.44;;;0.48;100.00
27984;BME280;15317;50.360;8.726;2023-02-14T01:53:08;101423.34;;;0.43;100.00
27984;BME280;15317;50.360;8.726;2023-02-14T01:57:13;101421.75;;;0.37;100.00
27984;BME280;15317;50.360;8.726;2023-02-14T02:01:18;101424.59;;;0.32;100.00
27984;BME280;15317;50.360;8.726;2023-02-14T02:05:22;101422.88;;;0.30;100.00
27984;BME280;15317;50.360;8.726;2023-02-14T02:09:27;101406.06;;;0.26;100.00
27984;BME280;15317;50.360;8.726;2023-02-14T02:13:32;101414.00;;;0.28;100.00
27984;BME280;15317;50.360;8.726;2023-02-14T02:17:42;101406.06;;;0.26;100.00
27984;BME280;15317;50.360;8.726;2023-02-14T02:22:00;101410.41;;;0.29;100.00
27984;BME280;15317;50.360;8.726;2023-02-14T02:26:26;101409.53;;;0.28;100.00
27984;BME280;15317;50.360;8.726;2023-02-14T02:30:49;101404.34;;;0.24;100.00
27984;BME280;15317;50.360;8.726;2023-02-14T02:35:21;101402.63;;;0.21;100.00
27984;BME280;15317;50.360;8.726;2023-02-14T02:39:35;101405.53;;;0.14;100.00
27984;BME280;15317;50.360;8.726;2023-02-14T02:43:51;101399.47;;;0.09;100.00
27984;BME280;15317;50.360;8.726;2023-02-14T02:48:01;101394.28;;;0.04;100.00
27984;BME280;15317;50.360;8.726;2023-02-14T02:52:10;101392.72;;;-0.03;100.00
27984;BME280;15317;50.360;8.726;2023-02-14T02:56:36;101401.78;;;-0.07;100.00
27984;BME280;15317;50.360;8.726;2023-02-14T03:00:47;101393.09;;;-0.15;100.00
27984;BME280;15317;50.360;8.726;2023-02-14T03:04:54;101403.84;;;-0.18;100.00
27984;BME280;15317;50.360;8.726;2023-02-14T03:09:09;101403.13;;;-0.23;100.00
27984;BME280;15317;50.360;8.726;2023-02-14T03:13:21;101401.41;;;-0.26;100.00
27984;BME280;15317;50.360;8.726;2023-02-14T03:17:31;101396.19;;;-0.29;100.00
27984;BME280;15317;50.360;8.726;2023-02-14T03:21:41;101398.06;;;-0.32;100.00
27984;BME280;15317;50.360;8.726;2023-02-14T03:25:53;101387.41;;;-0.34;100.00
27984;BME280;15317;50.360;8.726;2023-02-14T03:30:04;101395.50;;;-0.35;100.00
27984;BME280;15317;50.360;8.726;2023-02-14T03:34:13;101389.38;;;-0.41;100.00
27984;BME280;15317;50.360;8.726;2023-02-14T03:38:20;101388.66;;;-0.46;100.00
27984;BME280;15317;50.360;8.726;2023-02-14T03:42:28;101386.00;;;-0.47;100.00
27984;BME280;15317;50.360;8.726;2023-02-14T03:46:35;101382.56;;;-0.51;100.00
27984;BME280;15317;50.360;8.726;2023-02-14T03:50:41;101390.59;;;-0.51;100.00
27984;BME280;15317;50.360;8.726;2023-02-14T03:54:48;101397.72;;;-0.51;100.00
27984;BME280;15317;50.360;8.726;2023-02-14T03:58:55;101400.38;;;-0.51;100.00
27984;BME280;15317;50.360;8.726;2023-02-14T04:03:02;101403.94;;;-0.51;100.00
27984;BME280;15317;50.360;8.726;2023-02-14T04:07:08;101399.47;;;-0.50;100.00
27984;BME280;15317;50.360;8.726;2023-02-14T04:11:11;101409.22;;;-0.49;100.00
27984;BME280;15317;50.360;8.726;2023-02-14T04:15:15;101401.34;;;-0.54;100.00
27984;BME280;15317;50.360;8.726;2023-02-14T04:19:17;101410.34;;;-0.58;100.00
27984;BME280;15317;50.360;8.726;2023-02-14T04:23:24;101398.03;;;-0.62;100.00
27984;BME280;15317;50.360;8.726;2023-02-14T04:27:26;101395.47;;;-0.66;100.00
27984;BME280;15317;50.360;8.726;2023-02-14T04:31:30;101395.59;;;-0.71;100.00
27984;BME280;15317;50.360;8.726;2023-02-14T04:35:32;101408.13;;;-0.74;100.00
27984;BME280;15317;50.360;8.726;2023-02-14T04:39:34;101397.63;;;-0.81;100.00
27984;BME280;15317;50.360;8.726;2023-02-14T04:43:36;101406.66;;;-0.85;100.00
27984;BME280;15317;50.360;8.726;2023-02-14T04:47:39;101407.69;;;-0.90;100.00
27984;BME280;15317;50.360;8.726;2023-02-14T04:51:42;101411.31;;;-0.93;100.00
27984;BME280;15317;50.360;8.726;2023-02-14T04:55:44;101408.63;;;-0.91;100.00
27984;BME280;15317;50.360;8.726;2023-02-14T04:59:46;101404.97;;;-0.89;100.00
27984;BME280;15317;50.360;8.726;2023-02-14T05:03:49;101409.28;;;-0.83;100.00
27984;BME280;15317;50.360;8.726;2023-02-14T05:07:51;101403.75;;;-0.75;100.00
27984;BME280;15317;50.360;8.726;2023-02-14T05:11:53;101407.91;;;-0.65;100.00
27984;BME280;15317;50.360;8.726;2023-02-14T05:15:55;101404.84;;;-0.52;100.00
27984;BME280;15317;50.360;8.726;2023-02-14T05:19:58;101409.56;;;-0.30;100.00
27984;BME280;15317;50.360;8.726;2023-02-14T05:24:00;101409.31;;;-0.21;100.00
27984;BME280;15317;50.360;8.726;2023-02-14T05:28:02;101415.47;;;-0.19;100.00
27984;BME280;15317;50.360;8.726;2023-02-14T05:32:04;101405.66;;;-0.19;100.00
27984;BME280;15317;50.360;8.726;2023-02-14T05:36:09;101412.72;;;-0.16;100.00
27984;BME280;15317;50.360;8.726;2023-02-14T05:40:11;101422.34;;;-0.11;100.00
27984;BME280;15317;50.360;8.726;2023-02-14T05:44:14;101420.53;;;-0.10;100.00
27984;BME280;15317;50.360;8.726;2023-02-14T05:48:16;101424.84;;;-0.06;100.00
27984;BME280;15317;50.360;8.726;2023-02-14T05:52:20;101417.78;;;-0.07;100.00
27984;BME280;15317;50.360;8.726;2023-02-14T05:56:22;101429.25;;;-0.04;100.00
27984;BME280;15317;50.360;8.726;2023-02-14T06:00:24;101428.47;;;-0.07;100.00
27984;BME280;15317;50.360;8.726;2023-02-14T06:04:26;101418.53;;;-0.02;100.00
27984;BME280;15317;50.360;8.726;2023-02-14T06:08:29;101426.44;;;0.01;100.00
27984;BME280;15317;50.360;8.726;2023-02-14T06:12:31;101428.19;;;0.02;100.00
27984;BME280;15317;50.360;8.726;2023-02-14T06:16:33;101429.97;;;0.02;100.00
27984;BME280;15317;50.360;8.726;2023-02-14T06:20:35;101422.75;;;0.05;100.00
27984;BME280;15317;50.360;8.726;2023-02-14T06:24:38;101421.00;;;0.04;100.00
27984;BME280;15317;50.360;8.726;2023-02-14T06:28:40;101419.16;;;0.06;100.00
27984;BME280;15317;50.360;8.726;2023-02-14T06:32:43;101419.16;;;0.06;100.00
27984;BME280;15317;50.360;8.726;2023-02-14T06:36:45;101428.00;;;0.08;100.00
27984;BME280;15317;50.360;8.726;2023-02-14T06:40:48;101432.53;;;0.06;100.00
27984;BME280;15317;50.360;8.726;2023-02-14T06:44:50;101434.25;;;0.07;100.00
27984;BME280;15317;50.360;8.726;2023-02-14T06:48:52;101426.16;;;0.10;100.00
27984;BME280;15317;50.360;8.726;2023-02-14T06:52:54;101429.03;;;0.04;100.00
27984;BME280;15317;50.360;8.726;2023-02-14T06:56:57;101427.19;;;0.06;100.00
27984;BME280;15317;50.360;8.726;2023-02-14T07:00:59;101425.56;;;0.00;100.00
27984;BME280;15317;50.360;8.726;2023-02-14T07:05:01;101419.44;;;-0.03;100.00
27984;BME280;15317;50.360;8.726;2023-02-14T07:09:04;101415.06;;;-0.06;100.00
27984;BME280;15317;50.360;8.726;2023-02-14T07:13:08;101413.19;;;-0.02;100.00
27984;BME280;15317;50.360;8.726;2023-02-14T07:17:10;101421.09;;;0.01;100.00
27984;BME280;15317;50.360;8.726;2023-02-14T07:21:12;101424.59;;;0.03;100.00
27984;BME280;15317;50.360;8.726;2023-02-14T07:25:14;101431.88;;;-0.02;100.00
27984;BME280;15317;50.360;8.726;2023-02-14T07:29:17;101420.41;;;-0.06;100.00
27984;BME280;15317;50.360;8.726;2023-02-14T07:33:19;101424.94;;;-0.08;100.00
27984;BME280;15317;50.360;8.726;2023-02-14T07:37:21;101421.91;;;0.03;100.00
27984;BME280;15317;50.360;8.726;2023-02-14T07:41:23;101424.41;;;0.09;100.00
27984;BME280;15317;50.360;8.726;2023-02-14T07:45:26;101429.56;;;0.15;100.00
27984;BME280;15317;50.360;8.726;2023-02-14T07:49:28;101423.34;;;0.15;100.00
27984;BME280;15317;50.360;8.726;2023-02-14T07:53:30;101428.56;;;0.19;100.00
27984;BME280;15317;50.360;8.726;2023-02-14T07:57:32;101425.69;;;0.25;100.00
27984;BME280;15317;50.360;8.726;2023-02-14T08:01:36;101415.66;;;0.33;100.00
27984;BME280;15317;50.360;8.726;2023-02-14T08:05:39;101403.88;;;0.39;100.00
27984;BME280;15317;50.360;8.726;2023-02-14T08:09:41;101407.50;;;0.36;100.00
27984;BME280;15317;50.360;8.726;2023-02-14T08:13:43;101415.28;;;0.44;100.00
27984;BME280;15317;50.360;8.726;2023-02-14T08:17:47;101417.09;;;0.44;100.00
27984;BME280;15317;50.360;8.726;2023-02-14T08:21:49;101402.88;;;0.42;100.00
27984;BME280;15317;50.360;8.726;2023-02-14T08:25:52;101413.25;;;0.52;100.00
27984;BME280;15317;50.360;8.726;2023-02-14T08:29:54;101416.69;;;0.56;100.00
27984;BME280;15317;50.360;8.726;2023-02-14T08:33:57;101416.56;;;0.60;100.00
27984;BME280;15317;50.360;8.726;2023-02-14T08:37:59;101419.28;;;0.59;100.00
27984;BME280;15317;50.360;8.726;2023-02-14T08:42:01;101416.69;;;0.56;100.00
27984;BME280;15317;50.360;8.726;2023-02-14T08:46:03;101409.50;;;0.58;100.00
27984;BME280;15317;50.360;8.726;2023-02-14T08:50:08;101416.41;;;0.65;100.00
27984;BME280;15317;50.360;8.726;2023-02-14T08:54:11;101422.47;;;0.70;100.00
27984;BME280;15317;50.360;8.726;2023-02-14T08:58:13;101415.34;;;0.69;100.00
27984;BME280;15317;50.360;8.726;2023-02-14T09:02:15;101410.97;;;0.68;100.00
27984;BME280;15317;50.360;8.726;2023-02-14T09:06:18;101411.34;;;0.82;100.00
27984;BME280;15317;50.360;8.726;2023-02-14T09:10:21;101419.31;;;0.84;100.00
27984;BME280;15317;50.360;8.726;2023-02-14T09:14:23;101410.22;;;0.89;100.00
27984;BME280;15317;50.360;8.726;2023-02-14T09:18:25;101415.44;;;0.94;100.00
27984;BME280;15317;50.360;8.726;2023-02-14T09:22:28;101407.53;;;0.89;100.00
27984;BME280;15317;50.360;8.726;2023-02-14T09:26:30;101405.91;;;0.85;100.00
27984;BME280;15317;50.360;8.726;2023-02-14T09:30:32;101410.94;;;0.94;100.00
27984;BME280;15317;50.360;8.726;2023-02-14T09:34:34;101411.75;;;0.96;100.00
27984;BME280;15317;50.360;8.726;2023-02-14T09:38:37;101408.97;;;0.99;100.00
27984;BME280;15317;50.360;8.726;2023-02-14T09:42:55;101411.75;;;0.96;100.00
27984;BME280;15317;50.360;8.726;2023-02-14T09:47:04;101416.84;;;1.04;100.00
27984;BME280;15317;50.360;8.726;2023-02-14T09:51:10;101423.25;;;1.00;100.00
27984;BME280;15317;50.360;8.726;2023-02-14T09:55:16;101422.81;;;1.12;100.00
27984;BME280;15317;50.360;8.726;2023-02-14T09:59:23;101417.00;;;0.99;100.00
27984;BME280;15317;50.360;8.726;2023-02-14T10:03:45;101411.63;;;1.01;100.00
27984;BME280;15317;50.360;8.726;2023-02-14T10:07:55;101414.75;;;0.87;100.00
27984;BME280;15317;50.360;8.726;2023-02-14T10:12:00;101423.59;;;0.89;100.00
27984;BME280;15317;50.360;8.726;2023-02-14T10:16:06;101422.41;;;0.98;100.00
27984;BME280;15317;50.360;8.726;2023-02-14T10:20:17;101421.22;;;1.06;100.00
27984;BME280;15317;50.360;8.726;2023-02-14T10:24:25;101417.72;;;1.04;100.00
27984;BME280;15317;50.360;8.726;2023-02-14T10:28:32;101420.78;;;1.18;100.00
27984;BME280;15317;50.360;8.726;2023-02-14T10:32:39;101416.97;;;1.26;100.00
27984;BME280;15317;50.360;8.726;2023-02-14T10:36:55;101416.06;;;1.27;100.00
27984;BME280;15317;50.360;8.726;2023-02-14T10:41:08;101417.09;;;1.23;100.00
27984;BME280;15317;50.360;8.726;2023-02-14T10:45:19;101406.19;;;1.29;100.00
27984;BME280;15317;50.360;8.726;2023-02-14T10:49:28;101410.53;;;1.31;100.00
27984;BME280;15317;50.360;8.726;2023-02-14T10:53:40;101399.53;;;1.39;100.00
27984;BME280;15317;50.360;8.726;2023-02-14T10:57:50;101404.28;;;1.31;100.00
27984;BME280;15317;50.360;8.726;2023-02-14T11:01:57;101395.28;;;1.33;100.00
27984;BME280;15317;50.360;8.726;2023-02-14T11:06:01;101395.47;;;1.29;100.00
27984;BME280;15317;50.360;8.726;2023-02-14T11:10:08;101383.97;;;1.50;100.00
27984;BME280;15317;50.360;8.726;2023-02-14T11:14:21;101385.59;;;1.54;100.00
27984;BME280;15317;50.360;8.726;2023-02-14T11:18:26;101379.56;;;1.49;100.00
27984;BME280;15317;50.360;8.726;2023-02-14T11:22:33;101373.78;;;1.36;100.00
27984;BME280;15317;50.360;8.726;2023-02-14T11:26:36;101374.66;;;1.60;100.00
27984;BME280;15317;50.360;8.726;2023-02-14T11:30:39;101372.56;;;1.68;100.00
27984;BME280;15317;50.360;8.726;2023-02-14T11:34:46;101369.53;;;1.54;100.00
27984;BME280;15317;50.360;8.726;2023-02-14T11:38:55;101366.56;;;1.62;100.00
27984;BME280;15317;50.360;8.726;2023-02-14T11:43:00;101364.28;;;1.51;100.00
27984;BME280;15317;50.360;8.726;2023-02-14T11:47:24;101364.78;;;1.62;100.00
27984;BME280;15317;50.360;8.726;2023-02-14T11:51:30;101359.69;;;1.78;100.00
27984;BME280;15317;50.360;8.726;2023-02-14T11:55:34;101347.59;;;1.91;100.00
27984;BME280;15317;50.360;8.726;2023-02-14T11:59:40;101340.97;;;1.99;100.00
27984;BME280;15317;50.360;8.726;2023-02-14T12:03:45;101336.47;;;2.00;100.00
27984;BME280;15317;50.360;8.726;2023-02-14T12:07:51;101330.38;;;1.96;100.00
27984;BME280;15317;50.360;8.726;2023-02-14T12:11:55;101343.34;;;2.07;100.00
27984;BME280;15317;50.360;8.726;2023-02-14T12:15:58;101330.81;;;2.08;100.00
27984;BME280;15317;50.360;8.726;2023-02-14T12:20:02;101323.47;;;2.13;100.00
27984;BME280;15317;50.360;8.726;2023-02-14T12:24:15;101322.47;;;2.15;100.00
27984;BME280;15317;50.360;8.726;2023-02-14T12:28:27;101317.78;;;2.20;100.00
27984;BME280;15317;50.360;8.726;2023-02-14T12:32:31;101323.16;;;2.20;100.00
27984;BME280;15317;50.360;8.726;2023-02-14T12:37:00;101308.94;;;1.96;100.00
27984;BME280;15317;50.360;8.726;2023-02-14T12:41:23;101308.56;;;2.06;100.00
27984;BME280;15317;50.360;8.726;2023-02-14T12:45:43;101304.84;;;2.10;100.00
27984;BME280;15317;50.360;8.726;2023-02-14T12:50:02;101293.34;;;2.06;100.00
27984;BME280;15317;50.360;8.726;2023-02-14T12:54:24;101282.78;;;2.25;100.00
27984;BME280;15317;50.360;8.726;2023-02-14T12:58:38;101274.63;;;2.48;100.00
27984;BME280;15317;50.360;8.726;2023-02-14T13:03:25;101267.25;;;2.53;100.00
27984;BME280;15317;50.360;8.726;2023-02-14T13:07:54;101266.25;;;2.56;100.00
27984;BME280;15317;50.360;8.726;2023-02-14T13:12:09;101248.47;;;2.73;100.00
27984;BME280;15317;50.360;8.726;2023-02-14T13:16:21;101253.44;;;2.83;100.00
27984;BME280;15317;50.360;8.726;2023-02-14T13:20:39;101249.00;;;2.82;100.00
27984;BME280;15317;50.360;8.726;2023-02-14T13:24:45;101239.34;;;2.77;100.00
27984;BME280;15317;50.360;8.726;2023-02-14T13:28:50;101243.91;;;2.75;100.00
27984;BME280;15317;50.360;8.726;2023-02-14T13:32:56;101230.16;;;2.83;100.00
27984;BME280;15317;50.360;8.726;2023-02-14T13:37:01;101230.50;;;2.75;100.00
27984;BME280;15317;50.360;8.726;2023-02-14T13:41:06;101230.16;;;2.83;100.00
27984;BME280;15317;50.360;8.726;2023-02-14T13:45:50;101223.91;;;2.83;100.00
27984;BME280;15317;50.360;8.726;2023-02-14T13:49:56;101220.53;;;2.98;100.00
27984;BME280;15317;50.360;8.726;2023-02-14T13:53:58;101224.97;;;2.99;100.00
27984;BME280;15317;50.360;8.726;2023-02-14T13:58:02;101219.97;;;3.10;100.00
27984;BME280;15317;50.360;8.726;2023-02-14T14:02:29;101217.56;;;3.04;100.00
27984;BME280;15317;50.360;8.726;2023-02-14T14:07:15;101211.28;;;3.24;100.00
27984;BME280;15317;50.360;8.726;2023-02-14T14:16:18;101199.16;;;3.15;100.00
27984;BME280;15317;50.360;8.726;2023-02-14T14:20:38;101193.00;;;3.32;100.00
27984;BME280;15317;50.360;8.726;2023-02-14T14:24:52;101187.78;;;3.47;100.00
27984;BME280;15317;50.360;8.726;2023-02-14T14:28:55;101193.28;;;3.44;100.00
27984;BME280;15317;50.360;8.726;2023-02-14T14:33:11;101198.03;;;3.39;100.00
27984;BME280;15317;50.360;8.726;2023-02-14T14:37:17;101187.56;;;3.33;100.00
27984;BME280;15317;50.360;8.726;2023-02-14T14:41:25;101186.66;;;3.14;100.00
27984;BME280;15317;50.360;8.726;2023-02-14T14:45:29;101181.50;;;3.09;100.00
27984;BME280;15317;50.360;8.726;2023-02-14T14:49:31;101177.97;;;3.09;100.00
27984;BME280;15317;50.360;8.726;2023-02-14T14:53:39;101178.31;;;3.01;100.00
27984;BME280;15317;50.360;8.726;2023-02-14T14:57:48;101176.84;;;2.94;100.00
27984;BME280;15317;50.360;8.726;2023-02-14T15:01:51;101175.19;;;2.92;100.00
27984;BME280;15317;50.360;8.726;2023-02-14T15:06:03;101161.84;;;2.90;100.00
27984;BME280;15317;50.360;8.726;2023-02-14T15:10:20;101160.28;;;3.05;100.00
27984;BME280;15317;50.360;8.726;2023-02-14T15:14:25;101162.44;;;2.97;100.00
27984;BME280;15317;50.360;8.726;2023-02-14T15:18:28;101155.25;;;2.97;100.00
27984;BME280;15317;50.360;8.726;2023-02-14T15:22:36;101146.44;;;2.94;100.00
27984;BME280;15317;50.360;8.726;2023-02-14T15:26:42;101149.81;;;2.99;100.00
27984;BME280;15317;50.360;8.726;2023-02-14T15:30:54;101137.34;;;2.98;100.00
27984;BME280;15317;50.360;8.726;2023-02-14T15:34:58;101145.69;;;2.92;100.00
27984;BME280;15317;50.360;8.726;2023-02-14T15:39:04;101141.75;;;2.99;100.00
27984;BME280;15317;50.360;8.726;2023-02-14T15:43:14;101139.72;;;3.04;100.00
27984;BME280;15317;50.360;8.726;2023-02-14T15:47:23;101136.41;;;2.99;100.00
27984;BME280;15317;50.360;8.726;2023-02-14T15:51:27;101136.09;;;2.86;100.00
27984;BME280;15317;50.360;8.726;2023-02-14T15:55:30;101127.81;;;2.72;100.00
27984;BME280;15317;50.360;8.726;2023-02-14T15:59:34;101141.69;;;2.61;100.00
27984;BME280;15317;50.360;8.726;2023-02-14T16:03:41;101148.56;;;2.48;100.00
27984;BME280;15317;50.360;8.726;2023-02-14T16:07:58;101130.34;;;2.36;100.00
27984;BME280;15317;50.360;8.726;2023-02-14T16:12:28;101138.94;;;2.24;100.00
27984;BME280;15317;50.360;8.726;2023-02-14T16:16:55;101137.72;;;2.11;100.00
27984;BME280;15317;50.360;8.726;2023-02-14T16:21:14;101134.75;;;1.96;100.00
27984;BME280;15317;50.360;8.726;2023-02-14T16:25:16;101131.66;;;1.85;100.00
27984;BME280;15317;50.360;8.726;2023-02-14T16:29:18;101138.09;;;1.81;100.00
27984;BME280;15317;50.360;8.726;2023-02-14T16:33:23;101133.25;;;1.69;100.00
27984;BME280;15317;50.360;8.726;2023-02-14T16:37:29;101131.00;;;1.58;100.00
27984;BME280;15317;50.360;8.726;2023-02-14T16:41:33;101136.59;;;1.52;100.00
27984;BME280;15317;50.360;8.726;2023-02-14T16:45:35;101133.44;;;1.43;100.00
27984;BME280;15317;50.360;8.726;2023-02-14T16:49:37;101141.84;;;1.34;100.00
27984;BME280;15317;50.360;8.726;2023-02-14T16:53:41;101141.22;;;1.27;100.00
27984;BME280;15317;50.360;8.726;2023-02-14T16:57:46;101137.84;;;1.22;100.00
27984;BME280;15317;50.360;8.726;2023-02-14T17:01:49;101139.81;;;1.17;100.00
27984;BME280;15317;50.360;8.726;2023-02-14T17:05:51;101138.19;;;1.13;100.00
27984;BME280;15317;50.360;8.726;2023-02-14T17:09:58;101140.31;;;1.05;100.00
27984;BME280;15317;50.360;8.726;2023-02-14T17:14:02;101141.53;;;0.96;100.00
27984;BME280;15317;50.360;8.726;2023-02-14T17:18:07;101137.47;;;0.86;100.00
27984;BME280;15317;50.360;8.726;2023-02-14T17:22:11;101143.97;;;0.79;100.00
27984;BME280;15317;50.360;8.726;2023-02-14T17:26:15;101152.25;;;0.73;100.00
27984;BME280;15317;50.360;8.726;2023-02-14T17:30:18;101147.16;;;0.65;100.00
27984;BME280;15317;50.360;8.726;2023-02-14T17:34:20;101152.84;;;0.56;100.00
27984;BME280;15317;50.360;8.726;2023-02-14T17:38:22;101159.44;;;0.48;100.00
27984;BME280;15317;50.360;8.726;2023-02-14T17:42:25;101150.81;;;0.39;100.00
27984;BME280;15317;50.360;8.726;2023-02-14T17:46:28;101152.84;;;0.33;100.00
27984;BME280;15317;50.360;8.726;2023-02-14T17:50:31;101141.41;;;0.28;100.00
27984;BME280;15317;50.360;8.726;2023-02-14T17:54:35;101145.13;;;0.24;100.00
27984;BME280;15317;50.360;8.726;2023-02-14T17:58:38;101153.41;;;0.16;100.00
27984;BME280;15317;50.360;8.726;2023-02-14T18:02:40;101155.44;;;0.10;100.00
27984;BME280;15317;50.360;8.726;2023-02-14T18:06:42;101158.28;;;0.05;100.00
27984;BME280;15317;50.360;8.726;2023-02-14T18:10:44;101145.13;;;-0.01;100.00
27984;BME280;15317;50.360;8.726;2023-02-14T18:14:48;101149.72;;;-0.06;100.00
27984;BME280;15317;50.360;8.726;2023-02-14T18:18:50;101141.94;;;-0.12;100.00
27984;BME280;15317;50.360;8.726;2023-02-14T18:22:53;101139.47;;;-0.18;100.00
27984;BME280;15317;50.360;8.726;2023-02-14T18:26:55;101137.00;;;-0.24;100.00
27984;BME280;15317;50.360;8.726;2023-02-14T18:31:03;101128.34;;;-0.31;100.00
27984;BME280;15317;50.360;8.726;2023-02-14T18:35:05;101126.75;;;-0.36;100.00
27984;BME280;15317;50.360;8.726;2023-02-14T18:39:08;101124.13;;;-0.38;100.00
27984;BME280;15317;50.360;8.726;2023-02-14T18:43:10;101118.03;;;-0.42;100.00
27984;BME280;15317;50.360;8.726;2023-02-14T18:47:14;101126.13;;;-0.45;100.00
27984;BME280;15317;50.360;8.726;2023-02-14T18:51:17;101119.16;;;-0.49;100.00
27984;BME280;15317;50.360;8.726;2023-02-14T18:55:19;101116.56;;;-0.52;100.00
27984;BME280;15317;50.360;8.726;2023-02-14T18:59:21;101113.94;;;-0.53;100.00
27984;BME280;15317;50.360;8.726;2023-02-14T19:03:24;101114.94;;;-0.56;100.00
27984;BME280;15317;50.360;8.726;2023-02-14T19:07:26;101115.03;;;-0.59;100.00
27984;BME280;15317;50.360;8.726;2023-02-14T19:11:30;101097.28;;;-0.60;100.00
27984;BME280;15317;50.360;8.726;2023-02-14T19:15:32;101091.94;;;-0.60;100.00
27984;BME280;15317;50.360;8.726;2023-02-14T19:19:35;101090.19;;;-0.61;100.00
27984;BME280;15317;50.360;8.726;2023-02-14T19:23:38;101083.13;;;-0.62;100.00
27984;BME280;15317;50.360;8.726;2023-02-14T19:27:40;101090.28;;;-0.64;100.00
27984;BME280;15317;50.360;8.726;2023-02-14T19:31:44;101088.56;;;-0.65;100.00
27984;BME280;15317;50.360;8.726;2023-02-14T19:35:57;101093.94;;;-0.66;100.00
27984;BME280;15317;50.360;8.726;2023-02-14T19:39:59;101094.81;;;-0.66;100.00
27984;BME280;15317;50.360;8.726;2023-02-14T19:44:03;101092.94;;;-0.62;100.00
27984;BME280;15317;50.360;8.726;2023-02-14T19:48:06;101090.09;;;-0.58;100.00
27984;BME280;15317;50.360;8.726;2023-02-14T19:52:13;101096.84;;;-0.48;100.00
27984;BME280;15317;50.360;8.726;2023-02-14T19:56:17;101090.34;;;-0.39;100.00
27984;BME280;15317;50.360;8.726;2023-02-14T20:00:21;101096.25;;;-0.29;100.00
27984;BME280;15317;50.360;8.726;2023-02-14T20:04:26;101087.97;;;-0.22;100.00
27984;BME280;15317;50.360;8.726;2023-02-14T20:08:30;101085.53;;;-0.03;100.00
27984;BME280;15317;50.360;8.726;2023-02-14T20:12:32;101093.09;;;0.09;100.00
27984;BME280;15317;50.360;8.726;2023-02-14T20:16:35;101094.63;;;0.16;100.00
27984;BME280;15317;50.360;8.726;2023-02-14T20:20:45;101082.75;;;0.25;100.00
27984;BME280;15317;50.360;8.726;2023-02-14T20:25:04;101081.75;;;0.27;100.00
27984;BME280;15317;50.360;8.726;2023-02-14T20:29:08;101082.22;;;0.38;100.00
27984;BME280;15317;50.360;8.726;2023-02-14T20:33:11;101080.16;;;0.47;100.00
27984;BME280;15317;50.360;8.726;2023-02-14T20:37:13;101079.22;;;0.48;100.00
27984;BME280;15317;50.360;8.726;2023-02-14T20:41:18;101077.13;;;0.56;100.00
27984;BME280;15317;50.360;8.726;2023-02-14T20:45:20;101068.13;;;0.58;100.00
27984;BME280;15317;50.360;8.726;2023-02-14T20:49:24;101062.59;;;0.63;100.00
27984;BME280;15317;50.360;8.726;2023-02-14T20:53:26;101060.72;;;0.65;100.00
27984;BME280;15317;50.360;8.726;2023-02-14T20:57:30;101059.81;;;0.66;100.00
27984;BME280;15317;50.360;8.726;2023-02-14T21:01:32;101060.50;;;0.71;100.00
27984;BME280;15317;50.360;8.726;2023-02-14T21:05:34;101057.94;;;0.68;100.00
27984;BME280;15317;50.360;8.726;2023-02-14T21:09:36;101055.13;;;0.71;100.00
27984;BME280;15317;50.360;8.726;2023-02-14T21:13:40;101049.94;;;0.68;100.00
27984;BME280;15317;50.360;8.726;2023-02-14T21:17:42;101053.41;;;0.70;100.00
27984;BME280;15317;50.360;8.726;2023-02-14T21:21:44;101043.41;;;0.75;100.00
27984;BME280;15317;50.360;8.726;2023-02-14T21:25:46;101041.78;;;0.71;100.00
27984;BME280;15317;50.360;8.726;2023-02-14T21:29:50;101045.41;;;0.68;100.00